Sutter Creek, California
Current Conditions -  °F | °C
As of 6:35 PM on Tuesday 21 Oct 2014 (Local Time) from KPVF Reporting Station
Clear Clear  
Wind Chill: 55°   Ceiling: Unl
Heat Index: 55°   Visibility: 10mi
Dew Point: 39°   Wind: 0mph
Humidity: 54%   Direction: NA
Pressure: 30.05"   Gusts: NA
Location:  38.39°N, 120.8°W
Report Text: KPVF 220135Z AUTO 00000KT 10SM CLR 13/04 A3005 RMK AO1
Loading
Personal Weather Stations






























Interactive Weather Map
Tropical Storm Tracking
New forecast layout! Learn more

10-Day Weather Forecast

Advertisements
Track Severe Weather on mobile